sensor_id;sensor_type;location;lat;lon;timestamp;temperature;humidity
47162;DHT22;32921;53.256;8.198;2023-03-23T00:01:47;10.70;99.90
47162;DHT22;32921;53.256;8.198;2023-03-23T00:04:15;10.70;99.90
47162;DHT22;32921;53.256;8.198;2023-03-23T00:06:41;10.70;99.90
47162;DHT22;32921;53.256;8.198;2023-03-23T00:09:09;10.70;99.90
47162;DHT22;32921;53.256;8.198;2023-03-23T00:11:35;10.80;99.90
47162;DHT22;32921;53.256;8.198;2023-03-23T00:14:01;10.80;99.90
47162;DHT22;32921;53.256;8.198;2023-03-23T00:16:29;10.80;99.90
47162;DHT22;32921;53.256;8.198;2023-03-23T00:18:57;10.80;99.90
47162;DHT22;32921;53.256;8.198;2023-03-23T00:21:24;10.80;99.90
47162;DHT22;32921;53.256;8.198;2023-03-23T00:23:51;10.80;99.90
47162;DHT22;32921;53.256;8.198;2023-03-23T00:26:16;10.80;99.90
47162;DHT22;32921;53.256;8.198;2023-03-23T00:28:42;10.90;99.90
47162;DHT22;32921;53.256;8.198;2023-03-23T00:31:09;10.90;99.90
47162;DHT22;32921;53.256;8.198;2023-03-23T00:33:37;10.80;99.90
47162;DHT22;32921;53.256;8.198;2023-03-23T00:36:10;10.90;99.90
47162;DHT22;32921;53.256;8.198;2023-03-23T00:38:37;10.90;99.90
47162;DHT22;32921;53.256;8.198;2023-03-23T00:41:03;10.90;99.90
47162;DHT22;32921;53.256;8.198;2023-03-23T00:43:31;10.90;99.90
47162;DHT22;32921;53.256;8.198;2023-03-23T00:45:57;10.90;99.90
47162;DHT22;32921;53.256;8.198;2023-03-23T00:48:28;10.90;99.90
47162;DHT22;32921;53.256;8.198;2023-03-23T00:50:54;10.90;99.90
47162;DHT22;32921;53.256;8.198;2023-03-23T00:53:22;10.90;99.90
47162;DHT22;32921;53.256;8.198;2023-03-23T00:55:48;10.90;99.90
47162;DHT22;32921;53.256;8.198;2023-03-23T00:58:15;10.90;99.90
47162;DHT22;32921;53.256;8.198;2023-03-23T01:00:41;10.90;99.90
47162;DHT22;32921;53.256;8.198;2023-03-23T01:03:09;10.90;99.90
47162;DHT22;32921;53.256;8.198;2023-03-23T01:05:38;10.90;99.90
47162;DHT22;32921;53.256;8.198;2023-03-23T01:08:04;10.90;99.90
47162;DHT22;32921;53.256;8.198;2023-03-23T01:10:30;10.90;99.90
47162;DHT22;32921;53.256;8.198;2023-03-23T01:12:58;10.90;99.90
47162;DHT22;32921;53.256;8.198;2023-03-23T01:15:25;11.00;99.90
47162;DHT22;32921;53.256;8.198;2023-03-23T01:17:51;10.90;99.90
47162;DHT22;32921;53.256;8.198;2023-03-23T01:20:17;10.90;99.90
47162;DHT22;32921;53.256;8.198;2023-03-23T01:22:43;10.90;99.90
47162;DHT22;32921;53.256;8.198;2023-03-23T01:25:10;10.90;99.90
47162;DHT22;32921;53.256;8.198;2023-03-23T01:27:36;10.90;99.90
47162;DHT22;32921;53.256;8.198;2023-03-23T01:30:04;10.90;99.90
47162;DHT22;32921;53.256;8.198;2023-03-23T01:32:30;10.90;99.90
47162;DHT22;32921;53.256;8.198;2023-03-23T01:34:55;10.90;99.90
47162;DHT22;32921;53.256;8.198;2023-03-23T01:37:21;10.90;99.90
47162;DHT22;32921;53.256;8.198;2023-03-23T01:39:52;11.00;99.90
47162;DHT22;32921;53.256;8.198;2023-03-23T01:42:24;10.90;99.90
47162;DHT22;32921;53.256;8.198;2023-03-23T01:47:16;11.00;99.90
47162;DHT22;32921;53.256;8.198;2023-03-23T01:49:47;11.00;99.90
47162;DHT22;32921;53.256;8.198;2023-03-23T01:52:23;10.90;99.90
47162;DHT22;32921;53.256;8.198;2023-03-23T01:54:52;10.90;99.90
47162;DHT22;32921;53.256;8.198;2023-03-23T01:57:19;10.90;99.90
47162;DHT22;32921;53.256;8.198;2023-03-23T01:59:50;10.90;99.90
47162;DHT22;32921;53.256;8.198;2023-03-23T02:02:17;10.90;99.90
47162;DHT22;32921;53.256;8.198;2023-03-23T02:04:43;10.90;99.90
47162;DHT22;32921;53.256;8.198;2023-03-23T02:07:11;10.80;99.90
47162;DHT22;32921;53.256;8.198;2023-03-23T02:09:38;10.80;99.90
47162;DHT22;32921;53.256;8.198;2023-03-23T02:12:03;10.80;99.90
47162;DHT22;32921;53.256;8.198;2023-03-23T02:14:29;10.80;99.90
47162;DHT22;32921;53.256;8.198;2023-03-23T02:24:33;10.80;99.90
47162;DHT22;32921;53.256;8.198;2023-03-23T02:27:17;10.70;99.90
47162;DHT22;32921;53.256;8.198;2023-03-23T02:30:09;10.70;99.90
47162;DHT22;32921;53.256;8.198;2023-03-23T02:35:54;10.70;99.90
47162;DHT22;32921;53.256;8.198;2023-03-23T02:38:33;10.70;99.90
47162;DHT22;32921;53.256;8.198;2023-03-23T02:41:01;10.60;99.90
47162;DHT22;32921;53.256;8.198;2023-03-23T02:43:30;10.60;99.90
47162;DHT22;32921;53.256;8.198;2023-03-23T02:45:57;10.60;99.90
47162;DHT22;32921;53.256;8.198;2023-03-23T02:48:28;10.60;99.90
47162;DHT22;32921;53.256;8.198;2023-03-23T02:50:54;10.60;99.90
47162;DHT22;32921;53.256;8.198;2023-03-23T02:53:24;10.70;99.90
47162;DHT22;32921;53.256;8.198;2023-03-23T02:55:53;10.60;99.90
47162;DHT22;32921;53.256;8.198;2023-03-23T02:58:21;10.60;99.90
47162;DHT22;32921;53.256;8.198;2023-03-23T03:00:49;10.60;99.90
47162;DHT22;32921;53.256;8.198;2023-03-23T03:03:21;10.60;99.90
47162;DHT22;32921;53.256;8.198;2023-03-23T03:08:46;10.60;99.90
47162;DHT22;32921;53.256;8.198;2023-03-23T03:11:16;10.60;99.90
47162;DHT22;32921;53.256;8.198;2023-03-23T03:13:48;10.60;99.90
47162;DHT22;32921;53.256;8.198;2023-03-23T03:18:57;10.60;99.90
47162;DHT22;32921;53.256;8.198;2023-03-23T03:21:28;10.60;99.90
47162;DHT22;32921;53.256;8.198;2023-03-23T03:23:57;10.70;99.90
47162;DHT22;32921;53.256;8.198;2023-03-23T03:26:26;10.70;99.90
47162;DHT22;32921;53.256;8.198;2023-03-23T03:28:53;10.70;99.90
47162;DHT22;32921;53.256;8.198;2023-03-23T03:31:22;10.60;99.90
47162;DHT22;32921;53.256;8.198;2023-03-23T03:33:49;10.60;99.90
47162;DHT22;32921;53.256;8.198;2023-03-23T03:36:19;10.60;99.90
47162;DHT22;32921;53.256;8.198;2023-03-23T03:38:48;10.70;99.90
47162;DHT22;32921;53.256;8.198;2023-03-23T03:41:15;10.70;99.90
47162;DHT22;32921;53.256;8.198;2023-03-23T03:43:41;10.70;99.90
47162;DHT22;32921;53.256;8.198;2023-03-23T03:46:06;10.60;99.90
47162;DHT22;32921;53.256;8.198;2023-03-23T03:48:33;10.60;99.90
47162;DHT22;32921;53.256;8.198;2023-03-23T03:50:58;10.60;99.90
47162;DHT22;32921;53.256;8.198;2023-03-23T03:53:26;10.60;99.90
47162;DHT22;32921;53.256;8.198;2023-03-23T03:55:54;10.70;99.90
47162;DHT22;32921;53.256;8.198;2023-03-23T03:58:26;10.70;99.90
47162;DHT22;32921;53.256;8.198;2023-03-23T04:01:02;10.70;99.90
47162;DHT22;32921;53.256;8.198;2023-03-23T04:03:28;10.70;99.90
47162;DHT22;32921;53.256;8.198;2023-03-23T04:05:54;10.70;99.90
47162;DHT22;32921;53.256;8.198;2023-03-23T04:08:22;10.70;99.90
47162;DHT22;32921;53.256;8.198;2023-03-23T04:10:48;10.70;99.90
47162;DHT22;32921;53.256;8.198;2023-03-23T04:13:14;10.60;99.90
47162;DHT22;32921;53.256;8.198;2023-03-23T04:15:40;10.60;99.90
47162;DHT22;32921;53.256;8.198;2023-03-23T04:18:05;10.60;99.90
47162;DHT22;32921;53.256;8.198;2023-03-23T04:20:32;10.70;99.90
47162;DHT22;32921;53.256;8.198;2023-03-23T04:22:57;10.70;99.90
47162;DHT22;32921;53.256;8.198;2023-03-23T04:25:23;10.70;99.90
47162;DHT22;32921;53.256;8.198;2023-03-23T04:27:49;10.70;99.90
47162;DHT22;32921;53.256;8.198;2023-03-23T04:30:21;10.70;99.90
47162;DHT22;32921;53.256;8.198;2023-03-23T04:32:48;10.60;99.90
47162;DHT22;32921;53.256;8.198;2023-03-23T04:35:17;10.60;99.90
47162;DHT22;32921;53.256;8.198;2023-03-23T04:37:44;10.50;99.90
47162;DHT22;32921;53.256;8.198;2023-03-23T04:40:12;10.50;99.90
47162;DHT22;32921;53.256;8.198;2023-03-23T04:42:40;10.40;99.90
47162;DHT22;32921;53.256;8.198;2023-03-23T04:45:08;10.40;99.90
47162;DHT22;32921;53.256;8.198;2023-03-23T04:47:35;10.40;99.90
47162;DHT22;32921;53.256;8.198;2023-03-23T04:50:10;10.40;99.90
47162;DHT22;32921;53.256;8.198;2023-03-23T04:52:37;10.40;99.90
47162;DHT22;32921;53.256;8.198;2023-03-23T04:55:07;10.50;99.90
47162;DHT22;32921;53.256;8.198;2023-03-23T04:57:34;10.60;99.90
47162;DHT22;32921;53.256;8.198;2023-03-23T05:00:01;10.70;99.90
47162;DHT22;32921;53.256;8.198;2023-03-23T05:02:30;10.70;99.90
47162;DHT22;32921;53.256;8.198;2023-03-23T05:04:56;10.80;99.90
47162;DHT22;32921;53.256;8.198;2023-03-23T05:07:23;10.70;99.90
47162;DHT22;32921;53.256;8.198;2023-03-23T05:09:49;10.70;99.90
47162;DHT22;32921;53.256;8.198;2023-03-23T05:12:15;10.80;99.90
47162;DHT22;32921;53.256;8.198;2023-03-23T05:14:41;10.70;99.90
47162;DHT22;32921;53.256;8.198;2023-03-23T05:17:07;10.70;99.90
47162;DHT22;32921;53.256;8.198;2023-03-23T05:19:34;10.80;99.90
47162;DHT22;32921;53.256;8.198;2023-03-23T05:22:00;10.80;99.90
47162;DHT22;32921;53.256;8.198;2023-03-23T05:24:31;10.80;99.90
47162;DHT22;32921;53.256;8.198;2023-03-23T05:27:00;10.70;99.90
47162;DHT22;32921;53.256;8.198;2023-03-23T05:29:28;10.60;99.90
47162;DHT22;32921;53.256;8.198;2023-03-23T05:31:56;10.70;99.90
47162;DHT22;32921;53.256;8.198;2023-03-23T05:34:25;10.70;99.90
47162;DHT22;32921;53.256;8.198;2023-03-23T05:36:52;10.70;99.90
47162;DHT22;32921;53.256;8.198;2023-03-23T05:39:18;10.70;99.90
47162;DHT22;32921;53.256;8.198;2023-03-23T05:41:44;10.80;99.90
47162;DHT22;32921;53.256;8.198;2023-03-23T05:44:09;10.70;99.90
47162;DHT22;32921;53.256;8.198;2023-03-23T05:46:35;10.70;99.90
47162;DHT22;32921;53.256;8.198;2023-03-23T05:49:01;10.70;99.90
47162;DHT22;32921;53.256;8.198;2023-03-23T05:51:27;10.70;99.90
47162;DHT22;32921;53.256;8.198;2023-03-23T05:53:52;10.80;99.90
47162;DHT22;32921;53.256;8.198;2023-03-23T05:56:18;10.90;99.90
47162;DHT22;32921;53.256;8.198;2023-03-23T05:58:44;10.90;99.90
47162;DHT22;32921;53.256;8.198;2023-03-23T06:01:10;10.90;99.90
47162;DHT22;32921;53.256;8.198;2023-03-23T06:03:38;11.00;99.90
47162;DHT22;32921;53.256;8.198;2023-03-23T06:06:03;11.20;99.90
47162;DHT22;32921;53.256;8.198;2023-03-23T06:08:30;11.20;99.90
47162;DHT22;32921;53.256;8.198;2023-03-23T06:10:55;11.20;99.90
47162;DHT22;32921;53.256;8.198;2023-03-23T06:13:22;11.20;99.90
47162;DHT22;32921;53.256;8.198;2023-03-23T06:15:47;11.20;99.90
47162;DHT22;32921;53.256;8.198;2023-03-23T06:18:13;11.20;99.90
47162;DHT22;32921;53.256;8.198;2023-03-23T06:20:39;11.10;99.90
47162;DHT22;32921;53.256;8.198;2023-03-23T06:23:06;11.00;99.90
47162;DHT22;32921;53.256;8.198;2023-03-23T06:25:32;11.00;99.90
47162;DHT22;32921;53.256;8.198;2023-03-23T06:27:58;10.90;99.90
47162;DHT22;32921;53.256;8.198;2023-03-23T06:30:24;10.80;99.90
47162;DHT22;32921;53.256;8.198;2023-03-23T06:32:51;10.80;99.90
47162;DHT22;32921;53.256;8.198;2023-03-23T06:35:16;10.80;99.90
47162;DHT22;32921;53.256;8.198;2023-03-23T06:37:42;10.60;99.90
47162;DHT22;32921;53.256;8.198;2023-03-23T06:40:08;10.50;99.90
47162;DHT22;32921;53.256;8.198;2023-03-23T06:42:35;10.30;99.90
47162;DHT22;32921;53.256;8.198;2023-03-23T06:45:01;10.30;99.90
47162;DHT22;32921;53.256;8.198;2023-03-23T06:47:28;10.20;99.90
47162;DHT22;32921;53.256;8.198;2023-03-23T06:49:59;10.20;99.90
47162;DHT22;32921;53.256;8.198;2023-03-23T06:52:25;10.20;99.90
47162;DHT22;32921;53.256;8.198;2023-03-23T06:54:51;10.30;99.90
47162;DHT22;32921;53.256;8.198;2023-03-23T06:57:18;10.30;99.90
47162;DHT22;32921;53.256;8.198;2023-03-23T06:59:44;10.30;99.90
47162;DHT22;32921;53.256;8.198;2023-03-23T07:02:11;10.30;99.90
47162;DHT22;32921;53.256;8.198;2023-03-23T07:04:38;10.40;99.90
47162;DHT22;32921;53.256;8.198;2023-03-23T07:07:05;10.40;99.90
47162;DHT22;32921;53.256;8.198;2023-03-23T07:09:31;10.50;99.90
47162;DHT22;32921;53.256;8.198;2023-03-23T07:11:56;10.50;99.90
47162;DHT22;32921;53.256;8.198;2023-03-23T07:14:22;10.50;99.90
47162;DHT22;32921;53.256;8.198;2023-03-23T07:16:48;10.60;99.90
47162;DHT22;32921;53.256;8.198;2023-03-23T07:19:14;10.60;99.90
47162;DHT22;32921;53.256;8.198;2023-03-23T07:21:39;10.60;99.90
47162;DHT22;32921;53.256;8.198;2023-03-23T07:24:05;10.60;99.90
47162;DHT22;32921;53.256;8.198;2023-03-23T07:26:31;10.70;99.90
47162;DHT22;32921;53.256;8.198;2023-03-23T07:28:57;10.80;99.90
47162;DHT22;32921;53.256;8.198;2023-03-23T07:31:22;10.80;99.90
47162;DHT22;32921;53.256;8.198;2023-03-23T07:33:48;10.80;99.90
47162;DHT22;32921;53.256;8.198;2023-03-23T07:36:13;10.80;99.90
47162;DHT22;32921;53.256;8.198;2023-03-23T07:38:39;10.80;99.90
47162;DHT22;32921;53.256;8.198;2023-03-23T07:41:05;10.80;99.90
47162;DHT22;32921;53.256;8.198;2023-03-23T07:43:31;10.80;99.90
47162;DHT22;32921;53.256;8.198;2023-03-23T07:45:57;10.80;99.90
47162;DHT22;32921;53.256;8.198;2023-03-23T07:48:23;10.90;99.90
47162;DHT22;32921;53.256;8.198;2023-03-23T07:50:48;11.00;99.90
47162;DHT22;32921;53.256;8.198;2023-03-23T07:53:15;11.10;99.90
47162;DHT22;32921;53.256;8.198;2023-03-23T07:55:41;11.40;99.90
47162;DHT22;32921;53.256;8.198;2023-03-23T07:58:06;11.70;99.90
47162;DHT22;32921;53.256;8.198;2023-03-23T08:00:32;12.00;99.90
47162;DHT22;32921;53.256;8.198;2023-03-23T08:02:58;12.60;99.90
47162;DHT22;32921;53.256;8.198;2023-03-23T08:05:25;13.10;99.90
47162;DHT22;32921;53.256;8.198;2023-03-23T08:07:52;13.40;99.90
47162;DHT22;32921;53.256;8.198;2023-03-23T08:10:25;13.60;99.90
47162;DHT22;32921;53.256;8.198;2023-03-23T08:12:54;13.40;99.90
47162;DHT22;32921;53.256;8.198;2023-03-23T08:15:21;13.20;99.90
47162;DHT22;32921;53.256;8.198;2023-03-23T08:17:47;13.20;99.90
47162;DHT22;32921;53.256;8.198;2023-03-23T08:20:13;13.10;99.90
47162;DHT22;32921;53.256;8.198;2023-03-23T08:22:41;13.10;99.90
47162;DHT22;32921;53.256;8.198;2023-03-23T08:25:09;12.90;99.90
47162;DHT22;32921;53.256;8.198;2023-03-23T08:27:36;12.90;99.90
47162;DHT22;32921;53.256;8.198;2023-03-23T08:30:03;12.80;99.90
47162;DHT22;32921;53.256;8.198;2023-03-23T08:32:30;12.60;99.90
47162;DHT22;32921;53.256;8.198;2023-03-23T08:34:56;12.60;99.90
47162;DHT22;32921;53.256;8.198;2023-03-23T08:37:22;12.50;99.90
47162;DHT22;32921;53.256;8.198;2023-03-23T08:39:52;12.70;99.90
47162;DHT22;32921;53.256;8.198;2023-03-23T08:42:18;13.00;99.90
47162;DHT22;32921;53.256;8.198;2023-03-23T08:44:44;13.00;99.90
47162;DHT22;32921;53.256;8.198;2023-03-23T08:47:10;13.00;99.90
47162;DHT22;32921;53.256;8.198;2023-03-23T08:49:35;13.20;99.90
47162;DHT22;32921;53.256;8.198;2023-03-23T08:52:02;13.60;99.90
47162;DHT22;32921;53.256;8.198;2023-03-23T08:54:28;13.90;99.90
47162;DHT22;32921;53.256;8.198;2023-03-23T08:56:55;14.30;99.90
47162;DHT22;32921;53.256;8.198;2023-03-23T08:59:24;14.50;99.90
47162;DHT22;32921;53.256;8.198;2023-03-23T09:01:50;14.30;99.90
47162;DHT22;32921;53.256;8.198;2023-03-23T09:04:16;14.30;99.90
47162;DHT22;32921;53.256;8.198;2023-03-23T09:06:42;14.20;99.90
47162;DHT22;32921;53.256;8.198;2023-03-23T09:09:08;14.40;99.90
47162;DHT22;32921;53.256;8.198;2023-03-23T09:11:34;14.50;99.90
47162;DHT22;32921;53.256;8.198;2023-03-23T09:14:01;14.60;99.90
47162;DHT22;32921;53.256;8.198;2023-03-23T09:16:27;14.30;99.90
47162;DHT22;32921;53.256;8.198;2023-03-23T09:18:53;14.20;99.90
47162;DHT22;32921;53.256;8.198;2023-03-23T09:21:20;14.10;99.90
47162;DHT22;32921;53.256;8.198;2023-03-23T09:23:47;14.30;99.90
47162;DHT22;32921;53.256;8.198;2023-03-23T09:26:14;14.20;99.90
47162;DHT22;32921;53.256;8.198;2023-03-23T09:28:40;14.30;99.90
47162;DHT22;32921;53.256;8.198;2023-03-23T09:31:05;14.40;99.90
47162;DHT22;32921;53.256;8.198;2023-03-23T09:33:31;14.30;99.90
47162;DHT22;32921;53.256;8.198;2023-03-23T09:36:00;14.30;99.90
47162;DHT22;32921;53.256;8.198;2023-03-23T09:38:30;14.20;99.90
47162;DHT22;32921;53.256;8.198;2023-03-23T09:41:19;14.40;99.90
47162;DHT22;32921;53.256;8.198;2023-03-23T09:46:59;14.10;99.90
47162;DHT22;32921;53.256;8.198;2023-03-23T09:52:13;13.90;99.90
47162;DHT22;32921;53.256;8.198;2023-03-23T09:54:42;13.90;99.90
47162;DHT22;32921;53.256;8.198;2023-03-23T10:00:40;14.10;99.10
47162;DHT22;32921;53.256;8.198;2023-03-23T10:03:14;14.10;99.90
47162;DHT22;32921;53.256;8.198;2023-03-23T10:05:52;14.60;99.90
47162;DHT22;32921;53.256;8.198;2023-03-23T10:08:22;14.70;98.00
47162;DHT22;32921;53.256;8.198;2023-03-23T10:11:01;14.70;97.20
47162;DHT22;32921;53.256;8.198;2023-03-23T10:16:26;14.60;96.00
47162;DHT22;32921;53.256;8.198;2023-03-23T10:22:09;14.80;95.10
47162;DHT22;32921;53.256;8.198;2023-03-23T10:24:51;14.70;95.00
47162;DHT22;32921;53.256;8.198;2023-03-23T10:27:31;14.70;95.10
47162;DHT22;32921;53.256;8.198;2023-03-23T10:32:52;14.70;95.50
47162;DHT22;32921;53.256;8.198;2023-03-23T10:35:23;14.70;96.40
47162;DHT22;32921;53.256;8.198;2023-03-23T10:37:56;14.50;95.30
47162;DHT22;32921;53.256;8.198;2023-03-23T10:40:28;14.30;97.60
47162;DHT22;32921;53.256;8.198;2023-03-23T10:42:55;14.20;97.80
47162;DHT22;32921;53.256;8.198;2023-03-23T10:45:24;14.10;97.70
47162;DHT22;32921;53.256;8.198;2023-03-23T10:47:55;13.90;99.80
47162;DHT22;32921;53.256;8.198;2023-03-23T10:50:25;14.20;99.30
47162;DHT22;32921;53.256;8.198;2023-03-23T10:52:52;14.70;98.00
47162;DHT22;32921;53.256;8.198;2023-03-23T10:55:22;14.80;97.50
47162;DHT22;32921;53.256;8.198;2023-03-23T10:58:00;14.80;98.80
47162;DHT22;32921;53.256;8.198;2023-03-23T11:00:27;14.60;97.80
47162;DHT22;32921;53.256;8.198;2023-03-23T11:03:20;14.30;97.80
47162;DHT22;32921;53.256;8.198;2023-03-23T11:05:50;14.20;99.50
47162;DHT22;32921;53.256;8.198;2023-03-23T11:08:28;14.10;99.00
47162;DHT22;32921;53.256;8.198;2023-03-23T11:10:59;14.20;99.90
47162;DHT22;32921;53.256;8.198;2023-03-23T11:13:32;14.40;99.90
47162;DHT22;32921;53.256;8.198;2023-03-23T11:16:00;14.60;99.90
47162;DHT22;32921;53.256;8.198;2023-03-23T11:18:42;14.50;99.60
47162;DHT22;32921;53.256;8.198;2023-03-23T11:21:12;14.70;99.90
47162;DHT22;32921;53.256;8.198;2023-03-23T11:23:50;15.70;98.60
47162;DHT22;32921;53.256;8.198;2023-03-23T11:26:29;17.40;96.30
47162;DHT22;32921;53.256;8.198;2023-03-23T11:31:39;17.50;90.80
47162;DHT22;32921;53.256;8.198;2023-03-23T11:36:41;18.20;91.20
47162;DHT22;32921;53.256;8.198;2023-03-23T11:39:23;17.90;91.00
47162;DHT22;32921;53.256;8.198;2023-03-23T11:41:49;17.30;91.90
47162;DHT22;32921;53.256;8.198;2023-03-23T11:44:15;16.80;91.40
47162;DHT22;32921;53.256;8.198;2023-03-23T11:47:20;16.20;92.60
47162;DHT22;32921;53.256;8.198;2023-03-23T11:52:56;14.00;99.90
47162;DHT22;32921;53.256;8.198;2023-03-23T11:58:13;12.50;99.90
47162;DHT22;32921;53.256;8.198;2023-03-23T12:00:52;12.20;99.90
47162;DHT22;32921;53.256;8.198;2023-03-23T12:03:20;12.00;99.90
47162;DHT22;32921;53.256;8.198;2023-03-23T12:14:02;11.20;99.90
47162;DHT22;32921;53.256;8.198;2023-03-23T12:16:53;11.10;99.90
47162;DHT22;32921;53.256;8.198;2023-03-23T12:19:38;11.00;99.90
47162;DHT22;32921;53.256;8.198;2023-03-23T12:28:44;10.00;99.90
47162;DHT22;32921;53.256;8.198;2023-03-23T12:30:53;10.00;99.90
47162;DHT22;32921;53.256;8.198;2023-03-23T12:36:51;10.10;99.90
47162;DHT22;32921;53.256;8.198;2023-03-23T12:39:41;10.40;99.90
47162;DHT22;32921;53.256;8.198;2023-03-23T12:42:29;11.20;99.90
47162;DHT22;32921;53.256;8.198;2023-03-23T12:47:44;11.70;99.90
47162;DHT22;32921;53.256;8.198;2023-03-23T12:50:14;12.40;99.90
47162;DHT22;32921;53.256;8.198;2023-03-23T12:52:57;13.90;99.90
47162;DHT22;32921;53.256;8.198;2023-03-23T12:55:37;15.10;99.90
47162;DHT22;32921;53.256;8.198;2023-03-23T12:58:09;16.20;99.90
47162;DHT22;32921;53.256;8.198;2023-03-23T13:00:56;16.70;99.90
47162;DHT22;32921;53.256;8.198;2023-03-23T13:03:31;17.00;99.90
47162;DHT22;32921;53.256;8.198;2023-03-23T13:06:12;17.30;99.90
47162;DHT22;32921;53.256;8.198;2023-03-23T13:11:33;14.50;99.90
47162;DHT22;32921;53.256;8.198;2023-03-23T13:14:28;13.90;99.90
47162;DHT22;32921;53.256;8.198;2023-03-23T13:25:19;15.50;99.90
47162;DHT22;32921;53.256;8.198;2023-03-23T13:27:57;15.50;99.90
47162;DHT22;32921;53.256;8.198;2023-03-23T13:30:23;16.20;99.90
47162;DHT22;32921;53.256;8.198;2023-03-23T13:32:49;17.40;99.90
47162;DHT22;32921;53.256;8.198;2023-03-23T13:35:17;18.50;98.00
47162;DHT22;32921;53.256;8.198;2023-03-23T13:37:48;19.20;94.60
47162;DHT22;32921;53.256;8.198;2023-03-23T13:42:52;20.20;86.50
47162;DHT22;32921;53.256;8.198;2023-03-23T13:48:24;19.60;84.10
47162;DHT22;32921;53.256;8.198;2023-03-23T13:50:55;19.10;85.60
47162;DHT22;32921;53.256;8.198;2023-03-23T13:53:45;19.20;84.20
47162;DHT22;32921;53.256;8.198;2023-03-23T13:56:41;19.70;82.00
47162;DHT22;32921;53.256;8.198;2023-03-23T13:59:28;19.90;81.80
47162;DHT22;32921;53.256;8.198;2023-03-23T14:01:56;20.20;80.00
47162;DHT22;32921;53.256;8.198;2023-03-23T14:04:30;19.00;79.60
47162;DHT22;32921;53.256;8.198;2023-03-23T14:06:57;17.40;83.50
47162;DHT22;32921;53.256;8.198;2023-03-23T14:09:42;16.30;88.20
47162;DHT22;32921;53.256;8.198;2023-03-23T14:12:25;15.70;90.70
47162;DHT22;32921;53.256;8.198;2023-03-23T14:14:58;15.50;90.90
47162;DHT22;32921;53.256;8.198;2023-03-23T14:17:28;15.60;89.10
47162;DHT22;32921;53.256;8.198;2023-03-23T14:19:57;15.50;88.60
47162;DHT22;32921;53.256;8.198;2023-03-23T14:22:28;15.30;90.30
47162;DHT22;32921;53.256;8.198;2023-03-23T14:25:17;15.20;90.20
47162;DHT22;32921;53.256;8.198;2023-03-23T14:27:44;15.10;92.80
47162;DHT22;32921;53.256;8.198;2023-03-23T14:30:15;14.70;93.60
47162;DHT22;32921;53.256;8.198;2023-03-23T14:32:42;14.40;93.40
47162;DHT22;32921;53.256;8.198;2023-03-23T14:35:22;14.20;92.70
47162;DHT22;32921;53.256;8.198;2023-03-23T14:37:48;14.40;94.00
47162;DHT22;32921;53.256;8.198;2023-03-23T14:40:16;15.60;92.10
47162;DHT22;32921;53.256;8.198;2023-03-23T14:42:42;15.70;90.20
47162;DHT22;32921;53.256;8.198;2023-03-23T14:45:16;15.80;91.00
47162;DHT22;32921;53.256;8.198;2023-03-23T14:47:47;16.30;89.80
47162;DHT22;32921;53.256;8.198;2023-03-23T14:53:02;16.60;85.40
47162;DHT22;32921;53.256;8.198;2023-03-23T14:55:30;17.40;81.70
47162;DHT22;32921;53.256;8.198;2023-03-23T14:58:08;18.00;79.00
47162;DHT22;32921;53.256;8.198;2023-03-23T15:00:43;18.40;75.10
47162;DHT22;32921;53.256;8.198;2023-03-23T15:03:14;18.70;73.00
47162;DHT22;32921;53.256;8.198;2023-03-23T15:05:49;19.50;72.60
47162;DHT22;32921;53.256;8.198;2023-03-23T15:08:26;19.70;72.60
47162;DHT22;32921;53.256;8.198;2023-03-23T15:11:05;19.20;70.90
47162;DHT22;32921;53.256;8.198;2023-03-23T15:13:33;18.80;72.70
47162;DHT22;32921;53.256;8.198;2023-03-23T15:16:15;18.70;74.10
47162;DHT22;32921;53.256;8.198;2023-03-23T15:18:50;18.70;74.60
47162;DHT22;32921;53.256;8.198;2023-03-23T15:21:30;19.00;72.70
47162;DHT22;32921;53.256;8.198;2023-03-23T15:23:57;19.00;72.90
47162;DHT22;32921;53.256;8.198;2023-03-23T15:26:27;19.00;72.10
47162;DHT22;32921;53.256;8.198;2023-03-23T15:29:11;19.10;71.00
47162;DHT22;32921;53.256;8.198;2023-03-23T15:31:41;18.70;72.10
47162;DHT22;32921;53.256;8.198;2023-03-23T15:34:14;17.80;75.20
47162;DHT22;32921;53.256;8.198;2023-03-23T15:36:40;16.30;80.80
47162;DHT22;32921;53.256;8.198;2023-03-23T15:39:08;15.20;87.00
47162;DHT22;32921;53.256;8.198;2023-03-23T15:41:49;15.00;90.40
47162;DHT22;32921;53.256;8.198;2023-03-23T15:44:31;16.10;89.00
47162;DHT22;32921;53.256;8.198;2023-03-23T15:47:18;16.90;86.70
47162;DHT22;32921;53.256;8.198;2023-03-23T15:50:02;16.00;87.60
47162;DHT22;32921;53.256;8.198;2023-03-23T15:52:28;15.90;86.20
47162;DHT22;32921;53.256;8.198;2023-03-23T15:54:54;16.30;82.70
47162;DHT22;32921;53.256;8.198;2023-03-23T15:57:19;15.80;84.10
47162;DHT22;32921;53.256;8.198;2023-03-23T15:59:45;15.10;86.80
47162;DHT22;32921;53.256;8.198;2023-03-23T16:02:18;15.90;84.70
47162;DHT22;32921;53.256;8.198;2023-03-23T16:04:45;16.70;79.10
47162;DHT22;32921;53.256;8.198;2023-03-23T16:07:11;16.60;77.10
47162;DHT22;32921;53.256;8.198;2023-03-23T16:09:39;16.50;76.40
47162;DHT22;32921;53.256;8.198;2023-03-23T16:12:10;15.90;78.10
47162;DHT22;32921;53.256;8.198;2023-03-23T16:14:38;14.70;83.10
47162;DHT22;32921;53.256;8.198;2023-03-23T16:17:04;14.20;86.40
47162;DHT22;32921;53.256;8.198;2023-03-23T16:19:30;13.80;86.10
47162;DHT22;32921;53.256;8.198;2023-03-23T16:21:56;13.60;88.40
47162;DHT22;32921;53.256;8.198;2023-03-23T16:24:21;13.50;90.60
47162;DHT22;32921;53.256;8.198;2023-03-23T16:26:47;13.40;91.00
47162;DHT22;32921;53.256;8.198;2023-03-23T16:29:15;13.20;90.20
47162;DHT22;32921;53.256;8.198;2023-03-23T16:31:41;13.10;90.80
47162;DHT22;32921;53.256;8.198;2023-03-23T16:34:07;13.00;91.00
47162;DHT22;32921;53.256;8.198;2023-03-23T16:36:33;13.00;90.80
47162;DHT22;32921;53.256;8.198;2023-03-23T16:38:59;13.00;90.50
47162;DHT22;32921;53.256;8.198;2023-03-23T16:41:25;13.00;90.80
47162;DHT22;32921;53.256;8.198;2023-03-23T16:43:50;12.90;91.00
47162;DHT22;32921;53.256;8.198;2023-03-23T16:46:16;12.90;91.80
47162;DHT22;32921;53.256;8.198;2023-03-23T16:48:42;12.80;92.50
47162;DHT22;32921;53.256;8.198;2023-03-23T16:51:07;12.70;92.20
47162;DHT22;32921;53.256;8.198;2023-03-23T16:53:33;12.50;92.60
47162;DHT22;32921;53.256;8.198;2023-03-23T16:55:58;12.50;93.70
47162;DHT22;32921;53.256;8.198;2023-03-23T16:58:24;12.40;93.00
47162;DHT22;32921;53.256;8.198;2023-03-23T17:00:50;12.30;93.20
47162;DHT22;32921;53.256;8.198;2023-03-23T17:03:20;12.30;94.20
47162;DHT22;32921;53.256;8.198;2023-03-23T17:05:50;12.30;93.80
47162;DHT22;32921;53.256;8.198;2023-03-23T17:08:17;12.30;94.50
47162;DHT22;32921;53.256;8.198;2023-03-23T17:10:44;12.30;94.60
47162;DHT22;32921;53.256;8.198;2023-03-23T17:13:10;12.20;94.80